Latest Weather Observations for Sydney Olympic Park

IDN60801

Issued at 3:33 pm EDT Monday 2 March 2015 (issued every 30 minutes, with the page automatically refreshed every 10 minutes)

About weather observations | Map of weather stations | Latest weather observations for NSW | Other Formats
Station Details ID: 066212 Name: SYDNEY OLYMPIC PARK AWS (ARCHERY CENTRE) Lat: -33.83 Lon: 151.07 Height: 4.0 m
Data from the previous 72 hours. | See also: Recent months at Sydney Olympic Park
Date/Time
EDT
Temp
°C
App
Temp
°C
Dew
Point
Rel
Hum
%
Delta-T
°C
Wind Press
QNH
hPa
Press
MSL
hPa
Rain
since 9 am
mm
Dir
 
Spd
km/h
Gust
km/h
Spd
kts
Gust
kts
02/03:30pm 22.8 21.8 16.6 68 3.8 ESE 17 26 9 14 - - 0.0
02/03:00pm 23.6 23.3 17.3 67 3.9 SE 15 22 8 12 - - 0.0
02/02:30pm 23.1 22.4 16.4 66 4.1 ESE 15 24 8 13 - - 0.0
02/02:00pm 22.8 22.2 16.6 68 3.8 ESE 15 22 8 12 - - 0.0
02/01:30pm 22.8 22.6 16.8 69 3.7 SE 13 20 7 11 - - 0.0
02/01:00pm 22.5 22.1 16.3 68 3.8 SE 13 22 7 12 - - 0.0
02/12:30pm 22.5 21.6 15.8 66 4.0 SSE 15 22 8 12 - - 0.0
02/12:00pm 22.7 21.8 15.8 65 4.2 SSE 15 20 8 11 - - 0.0
02/11:30am 22.5 21.0 15.4 64 4.2 SSE 17 22 9 12 - - 0.0
02/11:00am 22.8 22.1 15.4 63 4.4 SE 13 22 7 12 - - 0.0
02/10:30am 22.3 21.8 15.9 67 3.9 SSE 13 17 7 9 - - 0.0
02/10:00am 22.0 22.8 15.8 68 3.7 SSW 6 11 3 6 - - 0.0
02/09:30am 20.6 20.7 14.0 66 3.8 WSW 6 9 3 5 - - 0.0
02/09:00am 19.3 19.1 13.5 69 3.3 WSW 7 11 4 6 - - 8.0
02/08:30am 18.7 18.7 13.6 72 2.9 WSW 6 11 3 6 - - 8.0
02/08:00am 18.2 17.5 13.3 73 2.8 WSW 9 15 5 8 - - 8.0
02/07:30am 17.9 17.4 12.8 72 2.8 W 7 13 4 7 - - 8.0
02/07:00am 17.6 17.3 12.7 73 2.7 WSW 6 11 3 6 - - 8.0
02/06:30am 17.7 17.1 12.4 71 2.9 WSW 7 13 4 7 - - 8.0
02/06:00am 18.0 17.1 12.5 70 3.1 WSW 9 13 5 7 - - 8.0
02/05:30am 18.2 17.3 12.6 70 3.1 SW 9 15 5 8 - - 8.0
02/05:00am 18.3 17.9 13.0 71 3.0 SW 7 13 4 7 - - 8.0
02/04:30am 18.7 18.0 13.3 71 3.1 SW 9 15 5 8 - - 8.0
02/04:00am 19.4 18.5 13.6 69 3.3 SW 11 19 6 10 - - 8.0
02/03:30am 20.2 19.4 14.1 68 3.5 SW 11 19 6 10 - - 8.0
02/03:00am 20.7 20.2 13.9 65 3.9 SW 9 15 5 8 - - 8.0
02/02:30am 20.9 20.3 13.6 63 4.2 S 9 20 5 11 - - 8.0
02/02:00am 20.8 19.1 13.5 63 4.2 S 15 20 8 11 - - 8.0
02/01:30am 20.9 19.6 13.8 64 4.1 S 13 22 7 12 - - 8.0
02/01:00am 20.9 18.7 13.4 62 4.3 S 17 26 9 14 - - 8.0
02/12:30am 21.1 17.8 12.8 59 4.7 SSE 22 44 12 24 - - 8.0
02/12:00am 21.3 18.4 14.0 63 4.2 SSE 22 35 12 19 - - 8.0
 
Date/Time
EDT
Temp
°C
App
Temp
°C
Dew
Point
Rel
Hum
%
Delta-T
°C
Wind Press
QNH
hPa
Press
MSL
hPa
Rain
since 9 am
mm
Dir
 
Spd
km/h
Gust
km/h
Spd
kts
Gust
kts
01/11:30pm 21.6 19.5 14.7 65 4.1 SSE 19 33 10 18 - - 8.0
01/11:00pm 21.6 19.2 14.5 64 4.2 SSE 20 39 11 21 - - 8.0
01/10:30pm 21.7 19.4 14.1 62 4.4 SSE 19 32 10 17 - - 8.0
01/10:00pm 21.9 19.2 13.5 59 4.8 SSE 20 37 11 20 - - 8.0
01/09:30pm 21.6 20.5 15.4 68 3.7 S 15 22 8 12 - - 8.0
01/09:00pm 21.6 19.8 16.1 71 3.3 SSE 20 35 11 19 - - 8.0
01/08:30pm 21.5 18.9 16.0 71 3.3 SSE 24 37 13 20 - - 8.0
01/08:01pm 21.0 19.3 17.2 79 2.3 SSE 22 41 12 22 - - 8.0
01/08:00pm 21.1 19.4 17.3 79 2.3 SSE 22 41 12 22 - - 8.0
01/07:39pm 20.8 19.2 18.4 86 1.5 S 24 39 13 21 - - 8.0
01/07:30pm 20.9 19.6 18.1 84 1.7 S 22 41 12 22 - - 7.6
01/07:00pm 21.0 17.8 18.2 84 1.7 S 32 46 17 25 - - 7.6
01/06:53pm 21.0 18.7 18.4 85 1.6 S 28 46 15 25 - - 7.6
01/06:30pm 21.3 19.8 19.4 89 1.2 SSE 26 41 14 22 - - 7.6
01/06:00pm 21.7 22.5 20.7 94 0.6 SSE 17 32 9 17 - - 7.6
01/05:30pm 21.7 22.1 20.9 95 0.5 ESE 20 30 11 16 - - 7.6
01/05:28pm 21.8 22.2 21.0 95 0.5 ESE 20 30 11 16 - - 7.6
01/05:10pm 22.1 22.4 20.7 92 0.9 SSW 20 43 11 23 - - 7.2
01/05:00pm 22.6 23.0 20.9 90 1.1 SSW 20 44 11 24 - - 6.8
01/04:30pm 22.5 21.8 21.0 91 1.0 SSE 26 41 14 22 - - 6.8
01/04:24pm 22.7 23.0 21.5 93 0.8 SSE 22 39 12 21 - - 6.8
01/04:00pm 23.5 22.0 21.0 86 1.6 S 30 57 16 31 - - 3.0
01/03:58pm 23.9 21.7 20.8 83 2.0 SSE 33 59 18 32 - - 1.2
01/03:45pm 26.4 24.8 19.3 65 4.6 SSW 26 70 14 38 - - 0.0
01/03:41pm 31.4 31.6 17.7 44 8.8 W 13 70 7 38 - - 0.0
01/03:30pm 34.5 35.8 18.5 38 10.4 WNW 9 19 5 10 - - 0.0
01/03:00pm 36.5 38.8 19.9 38 11.1 NW 7 17 4 9 - - 0.0
01/02:30pm 35.6 36.8 19.1 38 10.9 WNW 11 17 6 9 - - 0.0
01/02:00pm 36.5 37.1 20.3 38 10.9 NNW 17 26 9 14 - - 0.0
01/01:30pm 36.0 37.6 21.4 42 9.9 NW 15 28 8 15 - - 0.0
01/01:00pm 35.6 38.0 21.5 44 9.6 NW 11 20 6 11 - - 0.0
01/12:30pm 34.3 35.5 19.9 42 9.6 NW 13 22 7 12 - - 0.0
01/12:00pm 33.5 34.5 21.0 48 8.4 NW 17 26 9 14 - - 0.0
01/11:30am 32.6 33.6 19.5 46 8.6 NW 13 20 7 11 - - 0.0
01/11:00am 32.2 34.4 20.5 50 7.8 NNW 9 15 5 8 - - 0.0
01/10:30am 29.6 32.5 20.7 58 5.9 ENE 6 9 3 5 - - 0.0
01/10:00am 28.4 32.1 21.4 66 4.7 N 4 7 2 4 - - 0.0
01/09:30am 26.1 29.9 21.7 77 2.9 S 4 7 2 4 - - 0.0
01/09:00am 24.0 27.9 21.1 84 1.9 NNE 2 6 1 3 - - 0.0
01/08:30am 22.6 26.0 20.9 90 1.1 NW 4 7 2 4 - - 0.0
01/08:00am 21.1 25.1 20.6 97 0.3 CALM 0 4 0 2 - - 0.0
01/07:30am 20.1 22.6 19.8 98 0.2 NW 6 7 3 4 - - 0.0
01/07:00am 19.5 22.8 19.2 98 0.2 CALM 0 6 0 3 - - 0.0
01/06:30am 19.8 23.3 19.5 98 0.2 CALM 0 6 0 3 - - 0.0
01/06:00am 20.0 23.6 19.7 98 0.2 CALM 0 0 0 0 - - 0.0
01/05:30am 20.3 24.0 20.0 98 0.2 CALM 0 0 0 0 - - 0.0
01/05:00am 20.8 24.8 20.5 98 0.2 CALM 0 0 0 0 - - 0.0
01/04:30am 21.0 24.6 20.5 97 0.3 NNE 2 7 1 4 - - 0.0
01/04:00am 20.9 24.7 20.1 95 0.5 CALM 0 0 0 0 - - 0.0
01/03:30am 21.3 25.0 19.9 92 0.9 CALM 0 6 0 3 - - 0.0
01/03:00am 22.0 24.9 20.6 92 0.9 NE 6 9 3 5 - - 0.0
01/02:30am 21.8 24.6 20.8 94 0.6 NNE 7 11 4 6 - - 0.0
01/02:00am 21.0 24.3 20.7 98 0.2 NE 4 9 2 5 - - 0.0
01/01:30am 20.4 24.2 20.1 98 0.2 CALM 0 0 0 0 - - 0.0
01/01:00am 20.5 24.3 20.2 98 0.2 CALM 0 0 0 0 - - 0.0
01/12:30am 20.9 24.7 20.2 96 0.4 CALM 0 0 0 0 - - 0.0
01/12:00am 21.2 25.1 20.4 95 0.5 CALM 0 0 0 0 - - 0.0
 
Date/Time
EDT
Temp
°C
App
Temp
°C
Dew
Point
Rel
Hum
%
Delta-T
°C
Wind Press
QNH
hPa
Press
MSL
hPa
Rain
since 9 am
mm
Dir
 
Spd
km/h
Gust
km/h
Spd
kts
Gust
kts
28/11:30pm 21.5 25.3 20.1 92 0.9 CALM 0 0 0 0 - - 0.0
28/11:00pm 22.3 26.1 20.2 88 1.4 CALM 0 0 0 0 - - 0.0
28/10:30pm 23.2 26.0 20.5 85 1.8 NNE 6 9 3 5 - - 0.0
28/10:00pm 23.4 26.5 20.3 83 2.0 N 4 9 2 5 - - 0.0
28/09:30pm 23.5 26.2 20.2 82 2.1 NE 6 11 3 6 - - 0.0
28/09:00pm 23.9 26.2 20.6 82 2.2 ENE 9 19 5 10 - - 0.0
28/08:30pm 24.1 26.4 20.6 81 2.3 ENE 9 19 5 10 - - 0.0
28/08:00pm 24.4 26.7 20.7 80 2.4 NE 9 19 5 10 - - 0.0
28/07:30pm 25.0 27.2 20.5 76 2.9 ENE 9 20 5 11 - - 0.0
28/07:00pm 25.9 27.5 20.0 70 3.8 ENE 11 17 6 9 - - 0.0
28/06:30pm 26.3 27.7 20.4 70 3.9 E 13 20 7 11 - - 0.0
28/06:00pm 27.2 28.8 20.8 68 4.2 NE 13 20 7 11 - - 0.0
28/05:30pm 28.1 30.6 21.1 65 4.6 ENE 9 19 5 10 - - 0.0
28/05:00pm 27.8 29.0 20.6 65 4.7 ENE 15 30 8 16 - - 0.0
28/04:30pm 27.7 28.7 20.3 64 4.9 ENE 15 22 8 12 - - 0.0
28/04:00pm 27.5 28.4 20.1 64 4.8 ENE 15 28 8 15 - - 0.0
28/03:30pm 28.6 29.8 20.6 62 5.3 ENE 15 22 8 12 - - 0.0
28/03:00pm 28.3 28.9 20.3 62 5.3 E 17 28 9 15 - - 0.0
28/02:30pm 28.3 29.1 20.6 63 5.1 ESE 17 24 9 13 - - 0.0
28/02:00pm 28.2 29.7 22.0 69 4.2 ESE 17 24 9 13 - - 0.0
28/01:30pm 27.9 29.7 21.9 70 4.0 ESE 15 22 8 12 - - 0.0
28/01:00pm 28.0 30.3 20.6 64 4.9 E 9 15 5 8 - - 0.0
28/12:30pm 26.9 28.2 18.5 60 5.4 E 9 11 5 6 - - 0.0
28/12:00pm 26.1 27.9 18.8 64 4.7 NE 7 11 4 6 - - 0.0
28/11:30am 25.5 27.4 18.9 67 4.2 SE 7 11 4 6 - - 0.0
28/11:00am 25.3 27.5 19.7 71 3.6 E 7 11 4 6 - - 0.0
28/10:30am 24.3 27.1 19.6 75 3.0 E 4 7 2 4 - - 0.0
28/10:00am 23.5 27.8 21.2 87 1.5 CALM 0 4 0 2 - - 0.0
28/09:30am 22.1 26.1 20.6 91 1.0 CALM 0 0 0 0 - - 0.0
28/09:00am 21.4 25.7 21.1 98 0.2 CALM 0 0 0 0 - - 6.4
28/08:30am 20.6 24.5 20.3 98 0.2 CALM 0 6 0 3 - - 6.4
28/08:00am 19.9 23.4 19.6 98 0.2 CALM 0 0 0 0 - - 6.4
28/07:30am 19.6 23.0 19.3 98 0.2 CALM 0 0 0 0 - - 6.4
28/07:00am 18.9 22.0 18.6 98 0.2 CALM 0 0 0 0 - - 6.4
28/06:30am 18.7 21.7 18.4 98 0.2 CALM 0 0 0 0 - - 6.4
28/06:00am 18.9 22.0 18.6 98 0.2 CALM 0 0 0 0 - - 6.4
28/05:30am 19.1 21.9 18.8 98 0.2 NE 2 7 1 4 - - 6.4
28/05:04am 18.9 21.6 18.6 98 0.2 N 2 7 1 4 - - 6.4
28/05:00am 18.9 21.6 18.6 98 0.2 N 2 7 1 4 - - 6.4
28/04:51am 19.0 22.1 18.7 98 0.2 CALM 0 0 0 0 - - 6.4
28/04:43am 19.0 22.1 18.7 98 0.2 CALM 0 0 0 0 - - 6.4
28/04:30am 18.9 22.0 18.6 98 0.2 CALM 0 0 0 0 - - 6.4
28/04:20am 19.0 22.1 18.7 98 0.2 CALM 0 0 0 0 - - 6.4
28/04:13am 18.9 22.0 18.6 98 0.2 CALM 0 0 0 0 - - 6.4
28/04:00am 18.9 22.0 18.6 98 0.2 CALM 0 0 0 0 - - 6.4
28/03:30am 19.2 22.4 18.9 98 0.2 CALM 0 0 0 0 - - 6.4
28/03:29am 19.2 22.4 18.9 98 0.2 CALM 0 0 0 0 - - 6.4
28/03:23am 19.2 22.4 18.9 98 0.2 CALM 0 0 0 0 - - 6.4
28/03:04am 19.3 22.6 19.0 98 0.2 CALM 0 0 0 0 - - 6.4
28/03:00am 19.3 22.6 19.0 98 0.2 CALM 0 0 0 0 - - 6.4
28/02:30am 19.5 22.8 19.2 98 0.2 CALM 0 0 0 0 - - 6.4
28/02:00am 19.7 23.1 19.4 98 0.2 CALM 0 0 0 0 - - 6.4
28/01:30am 19.8 23.3 19.5 98 0.2 CALM 0 0 0 0 - - 6.4
28/01:00am 20.1 23.7 19.8 98 0.2 CALM 0 0 0 0 - - 6.4
28/12:30am 20.2 23.8 19.7 97 0.3 CALM 0 0 0 0 - - 6.4
28/12:00am 20.5 24.1 19.8 96 0.4 CALM 0 0 0 0 - - 6.4
 
Date/Time
EDT
Temp
°C
App
Temp
°C
Dew
Point
Rel
Hum
%
Delta-T
°C
Wind Press
QNH
hPa
Press
MSL
hPa
Rain
since 9 am
mm
Dir
 
Spd
km/h
Gust
km/h
Spd
kts
Gust
kts
27/11:30pm 20.9 24.7 20.1 95 0.5 CALM 0 0 0 0 - - 6.4
27/11:00pm 21.6 25.5 20.4 93 0.8 CALM 0 6 0 3 - - 6.4
27/10:30pm 22.5 26.6 20.8 90 1.1 CALM 0 0 0 0 - - 6.4
27/10:00pm 22.9 25.6 20.6 87 1.5 E 7 13 4 7 - - 6.4
27/09:30pm 23.0 25.9 20.7 87 1.5 ENE 6 11 3 6 - - 6.4
27/09:00pm 23.2 25.8 20.5 85 1.8 ENE 7 13 4 7 - - 6.4
27/08:30pm 23.5 26.1 20.4 83 2.0 E 7 11 4 6 - - 6.4
27/08:00pm 23.6 25.4 20.3 82 2.1 E 11 17 6 9 - - 6.4
27/07:30pm 24.1 25.1 20.2 79 2.5 E 15 22 8 12 - - 6.4
27/07:00pm 24.6 26.6 19.9 75 3.0 E 9 17 5 9 - - 6.4
27/06:30pm 25.0 25.9 20.0 74 3.2 ESE 15 22 8 12 - - 6.4
27/06:00pm 25.6 25.3 18.3 64 4.6 E 17 24 9 13 - - 6.4
27/05:30pm 26.1 26.1 18.2 61 5.0 E 15 20 8 11 - - 6.4
27/05:00pm 26.4 27.3 19.3 65 4.6 E 13 20 7 11 - - 6.4
27/04:30pm 26.8 27.4 19.4 64 4.8 E 15 22 8 12 - - 6.4
27/04:00pm 26.8 28.0 19.9 66 4.5 E 13 20 7 11 - - 6.4

Other Formats:

Comma delimited format used in spreadsheet applications
http://www.bom.gov.au/fwo/IDN60801/IDN60801.95765.axf

JavaScript Object Notation format (JSON) in row-major order
http://www.bom.gov.au/fwo/IDN60801/IDN60801.95765.json